Weather at Andrés Sabella Gálvez International Airport

Public forecast

Using degrees Celsius for public forecast. Weather courtesy of forecast.io.

Current aviation weather report (METAR) for Andrés Sabella Gálvez International Airport

Retrieved 2021/04/16 16:00 UTC (23 minutes ago):

SCFA 161600Z 29004KT 230V360 9999 SCT032 21/12 Q1015 NOSIG

Aviation forecast (TAF) for Andrés Sabella Gálvez International Airport

Retrieved 2021/04/16 12:00 UTC (4 hours ago):

TAF SCFA 161030Z 1612/1712 30004KT 9999 BKN030 TX19/1618Z TN15/1709Z BECMG 1616/1618 20010KT CAVOK BECMG 1700/1702 19004KT BKN025 BECMG 1708/1710 07004KT